Time;durP1;ratioP1;P1;durP2;ratioP2;P2;SDS_P1;SDS_P2;PMS_P1;PMS_P2;Temp;Humidity;BMP_temperature;BMP_pressure;BME280_temperature;BME280_humidity;BME280_pressure;Samples;Min_cycle;Max_cycle;Signal;HPM_P1;HPM_P2
2023/03/27 00:00:15;;;;;;;9.63;1.40;;;;;;;;;;5054380;28;20049;-66
2023/03/27 00:02:42;;;;;;;8.27;1.38;;;;;;;;;;5041468;28;20664;-66
2023/03/27 00:05:09;;;;;;;8.57;1.33;;;;;;;;;;5038252;28;20095;-66
2023/03/27 00:07:35;;;;;;;11.02;2.17;;;;;;;;;;5038281;28;20064;-66
2023/03/27 00:10:01;;;;;;;5.82;1.40;;;;;;;;;;5053925;28;20048;-66
2023/03/27 00:12:27;;;;;;;10.25;1.50;;;;;;;;;;5054986;28;20474;-67
2023/03/27 00:14:54;;;;;;;8.45;1.13;;;;;;;;;;5053882;28;20032;-66
2023/03/27 00:17:20;;;;;;;8.55;1.20;;;;;;;;;;5053168;28;20056;-66
2023/03/27 00:19:46;;;;;;;12.35;1.63;;;;;;;;;;5054128;28;20060;-66
2023/03/27 00:22:12;;;;;;;5.97;1.58;;;;;;;;;;5055248;28;20049;-66
2023/03/27 00:24:38;;;;;;;15.20;1.38;;;;;;;;;;5053953;28;20048;-66
2023/03/27 00:27:05;;;;;;;10.65;1.60;;;;;;;;;;5056106;28;20048;-66
2023/03/27 00:29:32;;;;;;;7.72;1.17;;;;;;;;;;5055167;28;20049;-66
2023/03/27 00:31:58;;;;;;;11.15;1.45;;;;;;;;;;5055971;28;20032;-66
2023/03/27 00:34:24;;;;;;;9.13;1.60;;;;;;;;;;5054772;28;20087;-66
2023/03/27 00:36:52;;;;;;;15.95;1.98;;;;;;;;;;5053507;28;20044;-65
2023/03/27 00:39:19;;;;;;;11.10;1.65;;;;;;;;;;5054015;28;20113;-66
2023/03/27 00:41:46;;;;;;;11.02;1.73;;;;;;;;;;5043573;28;20121;-66
2023/03/27 00:44:22;;;;;;;13.60;1.95;;;;;;;;;;5058355;28;20163;-66
2023/03/27 00:46:49;;;;;;;11.40;1.23;;;;;;;;;;5056677;28;20103;-66
2023/03/27 00:49:16;;;;;;;14.45;1.50;;;;;;;;;;5056017;28;20082;-66
2023/03/27 00:51:45;;;;;;;9.43;1.58;;;;;;;;;;5055653;28;20048;-66
2023/03/27 00:54:15;;;;;;;12.52;2.08;;;;;;;;;;5058894;28;20566;-66
2023/03/27 00:56:41;;;;;;;10.93;1.88;;;;;;;;;;5038866;28;20045;-66
2023/03/27 00:59:10;;;;;;;10.57;1.70;;;;;;;;;;5035178;28;20077;-66
2023/03/27 01:01:36;;;;;;;14.05;1.60;;;;;;;;;;5053640;28;20059;-66
2023/03/27 01:04:05;;;;;;;12.98;1.80;;;;;;;;;;5037216;28;20455;-66
2023/03/27 01:06:31;;;;;;;6.97;1.50;;;;;;;;;;5056971;28;20613;-66
2023/03/27 01:08:58;;;;;;;19.50;2.38;;;;;;;;;;5057389;28;20396;-66
2023/03/27 01:11:37;;;;;;;10.43;1.48;;;;;;;;;;5057713;28;20041;-66
2023/03/27 01:14:15;;;;;;;8.65;2.22;;;;;;;;;;5053023;28;20124;-66
2023/03/27 01:16:47;;;;;;;12.68;1.60;;;;;;;;;;5054696;28;20048;-66
2023/03/27 01:19:34;;;;;;;13.93;1.63;;;;;;;;;;5058025;28;20049;-66
2023/03/27 01:22:11;;;;;;;7.35;1.42;;;;;;;;;;5039412;28;20071;-67
2023/03/27 01:24:52;;;;;;;14.73;1.80;;;;;;;;;;5044588;28;20101;-66
2023/03/27 01:27:29;;;;;;;13.05;2.25;;;;;;;;;;5057067;28;20047;-66
2023/03/27 01:30:12;;;;;;;13.02;1.67;;;;;;;;;;5058510;28;20119;-64
2023/03/27 01:32:57;;;;;;;14.55;2.15;;;;;;;;;;5051625;28;20037;-64
2023/03/27 01:35:44;;;;;;;8.10;1.50;;;;;;;;;;5057367;28;20048;-65
2023/03/27 01:38:10;;;;;;;5.75;1.40;;;;;;;;;;5056149;28;21517;-66
2023/03/27 01:40:42;;;;;;;11.95;1.80;;;;;;;;;;5060008;28;20037;-65
2023/03/27 01:43:12;;;;;;;11.45;1.90;;;;;;;;;;5037875;28;20387;-66
2023/03/27 01:45:42;;;;;;;5.85;1.42;;;;;;;;;;5056478;28;20180;-66
2023/03/27 01:48:17;;;;;;;12.55;1.70;;;;;;;;;;5057693;28;20041;-65
2023/03/27 01:50:47;;;;;;;11.23;2.08;;;;;;;;;;5055902;28;20051;-65
2023/03/27 01:53:24;;;;;;;14.23;2.03;;;;;;;;;;5059389;28;20079;-65
2023/03/27 01:55:53;;;;;;;12.55;2.42;;;;;;;;;;5036246;28;20055;-65
2023/03/27 01:58:22;;;;;;;13.32;1.67;;;;;;;;;;5057624;28;20052;-65
2023/03/27 02:00:50;;;;;;;5.30;1.30;;;;;;;;;;5056781;28;20390;-65
2023/03/27 02:03:19;;;;;;;11.73;1.50;;;;;;;;;;5053498;28;20143;-65
2023/03/27 02:05:48;;;;;;;13.88;1.80;;;;;;;;;;5056244;28;20522;-66
2023/03/27 02:08:16;;;;;;;8.15;1.17;;;;;;;;;;5057334;28;20072;-65
2023/03/27 02:10:44;;;;;;;5.88;1.45;;;;;;;;;;5033256;28;20033;-65
2023/03/27 02:13:17;;;;;;;8.93;1.20;;;;;;;;;;5038574;28;20087;-65
2023/03/27 02:15:44;;;;;;;10.52;1.45;;;;;;;;;;5040944;28;20063;-65
2023/03/27 02:18:12;;;;;;;10.13;1.45;;;;;;;;;;5053923;28;20060;-65
2023/03/27 02:20:39;;;;;;;7.45;1.50;;;;;;;;;;5054439;28;20059;-65
2023/03/27 02:23:06;;;;;;;8.15;1.38;;;;;;;;;;5036191;28;20475;-65
2023/03/27 02:25:34;;;;;;;10.27;2.42;;;;;;;;;;5047620;28;20040;-65
2023/03/27 02:28:00;;;;;;;12.10;2.05;;;;;;;;;;5055199;28;20391;-65
2023/03/27 02:30:33;;;;;;;13.60;1.80;;;;;;;;;;5048608;28;20048;-65
2023/03/27 02:33:07;;;;;;;14.63;3.05;;;;;;;;;;5036862;28;20063;-65
2023/03/27 02:35:34;;;;;;;8.73;2.00;;;;;;;;;;5056375;28;20044;-65
2023/03/27 02:38:07;;;;;;;12.35;1.90;;;;;;;;;;5056849;28;20044;-65
2023/03/27 02:40:37;;;;;;;12.48;2.05;;;;;;;;;;5036019;28;20044;-65
2023/03/27 02:43:06;;;;;;;11.55;1.83;;;;;;;;;;5054679;28;20059;-66
2023/03/27 02:45:39;;;;;;;10.35;1.88;;;;;;;;;;5057190;28;20106;-65
2023/03/27 02:48:08;;;;;;;20.45;2.50;;;;;;;;;;5060075;28;20048;-65
2023/03/27 02:50:43;;;;;;;16.70;3.03;;;;;;;;;;5039042;28;20049;-65
2023/03/27 02:53:11;;;;;;;8.77;1.90;;;;;;;;;;5033885;28;20053;-65
2023/03/27 02:55:40;;;;;;;12.07;2.95;;;;;;;;;;5052507;28;20054;-64
2023/03/27 02:58:08;;;;;;;13.45;2.08;;;;;;;;;;5032664;28;20465;-64
2023/03/27 03:00:39;;;;;;;8.23;1.70;;;;;;;;;;5037957;28;20097;-64
2023/03/27 03:03:09;;;;;;;7.55;1.48;;;;;;;;;;5055106;28;20135;-64
2023/03/27 03:05:36;;;;;;;7.32;1.70;;;;;;;;;;5033858;28;20058;-64
2023/03/27 03:08:03;;;;;;;10.95;1.50;;;;;;;;;;5040656;28;20036;-64
2023/03/27 03:10:29;;;;;;;10.20;1.52;;;;;;;;;;5054838;28;20059;-65
2023/03/27 03:12:55;;;;;;;12.75;1.80;;;;;;;;;;5056545;28;20048;-65
2023/03/27 03:15:21;;;;;;;11.23;2.50;;;;;;;;;;5040614;28;20161;-65
2023/03/27 03:17:48;;;;;;;10.32;1.83;;;;;;;;;;5053887;28;20114;-65
2023/03/27 03:20:15;;;;;;;9.10;1.95;;;;;;;;;;5054271;28;20045;-65
2023/03/27 03:22:41;;;;;;;9.65;2.08;;;;;;;;;;5054955;28;20098;-65
2023/03/27 03:25:09;;;;;;;11.00;1.70;;;;;;;;;;5038238;28;20043;-64
2023/03/27 03:27:36;;;;;;;9.88;2.00;;;;;;;;;;5042355;28;20052;-64
2023/03/27 03:30:04;;;;;;;10.85;1.77;;;;;;;;;;5038771;28;20040;-65
2023/03/27 03:32:30;;;;;;;10.38;1.80;;;;;;;;;;5037928;28;20123;-65
2023/03/27 03:34:57;;;;;;;12.15;2.00;;;;;;;;;;5052563;28;20120;-65
2023/03/27 03:37:27;;;;;;;7.43;1.80;;;;;;;;;;5053985;28;20123;-65
2023/03/27 03:39:54;;;;;;;5.47;1.23;;;;;;;;;;5038983;28;20068;-65
2023/03/27 03:42:21;;;;;;;10.77;2.15;;;;;;;;;;5055302;28;20057;-65
2023/03/27 03:44:47;;;;;;;14.88;1.73;;;;;;;;;;5041116;28;20583;-65
2023/03/27 03:47:13;;;;;;;11.85;1.73;;;;;;;;;;5038262;28;20114;-65
2023/03/27 03:49:39;;;;;;;13.35;2.30;;;;;;;;;;5053324;28;20041;-65
2023/03/27 03:52:06;;;;;;;8.23;1.92;;;;;;;;;;5053892;28;20496;-66
2023/03/27 03:54:32;;;;;;;9.65;1.95;;;;;;;;;;5052477;28;20036;-65
2023/03/27 03:56:58;;;;;;;18.38;2.40;;;;;;;;;;5052587;28;20036;-65
2023/03/27 03:59:25;;;;;;;16.23;3.53;;;;;;;;;;5038796;28;20048;-65
2023/03/27 04:01:51;;;;;;;8.95;2.30;;;;;;;;;;5054617;28;20230;-65
2023/03/27 04:04:17;;;;;;;12.20;2.13;;;;;;;;;;5056610;28;20334;-66
2023/03/27 04:06:44;;;;;;;9.82;1.95;;;;;;;;;;5054273;28;20060;-65
2023/03/27 04:09:11;;;;;;;11.50;3.10;;;;;;;;;;5054793;28;20036;-65
2023/03/27 04:11:37;;;;;;;14.80;2.47;;;;;;;;;;5056060;28;20522;-65
2023/03/27 04:14:03;;;;;;;16.33;2.85;;;;;;;;;;5056519;28;20063;-65
2023/03/27 04:16:29;;;;;;;9.25;2.25;;;;;;;;;;5057411;28;20056;-65
2023/03/27 04:18:55;;;;;;;15.13;2.35;;;;;;;;;;5033227;28;20515;-65
2023/03/27 04:21:25;;;;;;;16.65;2.45;;;;;;;;;;5052548;28;20425;-65
2023/03/27 04:23:51;;;;;;;9.43;2.10;;;;;;;;;;5053663;28;20157;-65
2023/03/27 04:26:17;;;;;;;13.70;2.20;;;;;;;;;;5054390;28;20036;-65
2023/03/27 04:28:43;;;;;;;13.38;2.33;;;;;;;;;;5051952;28;20048;-65
2023/03/27 04:31:10;;;;;;;13.63;1.85;;;;;;;;;;5052883;28;20048;-65
2023/03/27 04:33:38;;;;;;;12.43;2.00;;;;;;;;;;5036577;28;20083;-65
2023/03/27 04:36:05;;;;;;;12.57;2.30;;;;;;;;;;5055495;28;20051;-65
2023/03/27 04:38:32;;;;;;;17.42;2.13;;;;;;;;;;5053767;28;20040;-65
2023/03/27 04:40:58;;;;;;;8.15;1.60;;;;;;;;;;5055907;28;20534;-65
2023/03/27 04:43:25;;;;;;;9.30;1.35;;;;;;;;;;5057204;28;20084;-65
2023/03/27 04:45:52;;;;;;;9.82;1.60;;;;;;;;;;5054315;28;20050;-65
2023/03/27 04:48:19;;;;;;;12.57;2.20;;;;;;;;;;5034608;28;20053;-65
2023/03/27 04:50:52;;;;;;;9.25;1.85;;;;;;;;;;5056313;28;20039;-65
2023/03/27 04:53:20;;;;;;;11.02;1.70;;;;;;;;;;5035606;28;20507;-65
2023/03/27 04:55:49;;;;;;;10.65;1.75;;;;;;;;;;5053917;28;20080;-65
2023/03/27 04:58:16;;;;;;;9.95;1.40;;;;;;;;;;5041040;28;20045;-65
2023/03/27 05:00:49;;;;;;;5.35;1.10;;;;;;;;;;5053711;28;20040;-65
2023/03/27 05:03:17;;;;;;;11.52;1.00;;;;;;;;;;5057120;28;20190;-65
2023/03/27 05:05:46;;;;;;;8.18;1.55;;;;;;;;;;5036308;28;20044;-65
2023/03/27 05:08:12;;;;;;;9.20;1.58;;;;;;;;;;5056443;28;20049;-64
2023/03/27 05:10:39;;;;;;;10.85;2.10;;;;;;;;;;5052536;28;20040;-65
2023/03/27 05:13:05;;;;;;;7.95;1.90;;;;;;;;;;5057484;28;20044;-65
2023/03/27 05:15:32;;;;;;;11.00;1.52;;;;;;;;;;5055537;28;20392;-65
2023/03/27 05:17:59;;;;;;;8.35;1.40;;;;;;;;;;5057861;28;20067;-65
2023/03/27 05:20:26;;;;;;;10.13;1.73;;;;;;;;;;5051266;28;20041;-65
2023/03/27 05:22:53;;;;;;;10.48;1.30;;;;;;;;;;5054331;28;20045;-65
2023/03/27 05:25:20;;;;;;;12.50;1.98;;;;;;;;;;5058611;28;20055;-65
2023/03/27 05:27:47;;;;;;;11.18;1.50;;;;;;;;;;5057756;28;20044;-66
2023/03/27 05:30:14;;;;;;;10.02;1.05;;;;;;;;;;5059923;28;20145;-65
2023/03/27 05:32:43;;;;;;;15.85;2.03;;;;;;;;;;5048054;28;20044;-66
2023/03/27 05:35:10;;;;;;;10.55;1.95;;;;;;;;;;5060844;28;20048;-65
2023/03/27 05:37:37;;;;;;;13.10;1.73;;;;;;;;;;5063886;28;20037;-66
2023/03/27 05:40:04;;;;;;;9.32;1.70;;;;;;;;;;5063871;28;20056;-66
2023/03/27 05:42:30;;;;;;;10.48;1.60;;;;;;;;;;5063370;28;20045;-66
2023/03/27 05:44:57;;;;;;;9.88;1.48;;;;;;;;;;5062700;28;20124;-66
2023/03/27 05:47:23;;;;;;;18.65;2.38;;;;;;;;;;5062375;28;20081;-65
2023/03/27 05:49:49;;;;;;;9.70;2.47;;;;;;;;;;5056876;28;20171;-64
2023/03/27 05:52:15;;;;;;;10.80;1.30;;;;;;;;;;5061742;28;20488;-65
2023/03/27 05:54:41;;;;;;;11.88;1.27;;;;;;;;;;5061531;28;20048;-65
2023/03/27 05:57:08;;;;;;;10.60;1.77;;;;;;;;;;5038513;28;20056;-65
2023/03/27 05:59:34;;;;;;;13.45;1.45;;;;;;;;;;5040707;28;20036;-65
2023/03/27 06:02:00;;;;;;;6.95;1.20;;;;;;;;;;5059620;28;20045;-66
2023/03/27 06:04:27;;;;;;;11.68;1.40;;;;;;;;;;5063596;28;20127;-65
2023/03/27 06:06:54;;;;;;;13.90;1.55;;;;;;;;;;5059093;28;20400;-65
2023/03/27 06:09:20;;;;;;;12.40;1.50;;;;;;;;;;5058182;28;20052;-65
2023/03/27 06:11:46;;;;;;;14.98;1.67;;;;;;;;;;5058265;28;20127;-65
2023/03/27 06:14:12;;;;;;;15.10;1.65;;;;;;;;;;5068483;28;20036;-65
2023/03/27 06:16:39;;;;;;;9.75;1.92;;;;;;;;;;5060920;28;20619;-65
2023/03/27 06:19:05;;;;;;;11.77;1.50;;;;;;;;;;5056739;28;20052;-66
2023/03/27 06:21:31;;;;;;;9.75;2.40;;;;;;;;;;5060547;28;20064;-65
2023/03/27 06:23:57;;;;;;;9.20;1.73;;;;;;;;;;5060958;28;20052;-71
2023/03/27 06:26:24;;;;;;;12.02;1.85;;;;;;;;;;5042043;28;20028;-67
2023/03/27 06:28:50;;;;;;;10.95;2.45;;;;;;;;;;5061258;28;20044;-66
2023/03/27 06:31:18;;;;;;;16.20;2.22;;;;;;;;;;5061754;28;20171;-66
2023/03/27 06:33:45;;;;;;;8.93;1.25;;;;;;;;;;5062071;28;20040;-67
2023/03/27 06:36:11;;;;;;;14.32;1.58;;;;;;;;;;5059828;28;20049;-67
2023/03/27 06:38:37;;;;;;;10.75;1.80;;;;;;;;;;5059152;28;20064;-67
2023/03/27 06:41:04;;;;;;;12.27;2.00;;;;;;;;;;5061267;28;20037;-67
2023/03/27 06:43:30;;;;;;;13.73;1.42;;;;;;;;;;5061567;28;20371;-67
2023/03/27 06:45:56;;;;;;;12.00;1.55;;;;;;;;;;5058546;28;20123;-67
2023/03/27 06:48:23;;;;;;;6.18;1.55;;;;;;;;;;5041112;28;20059;-66
2023/03/27 06:50:50;;;;;;;12.02;1.48;;;;;;;;;;5043557;28;20040;-67
2023/03/27 06:53:17;;;;;;;15.57;2.70;;;;;;;;;;5056178;28;20349;-67
2023/03/27 06:55:44;;;;;;;15.88;2.97;;;;;;;;;;5062084;28;20503;-67
2023/03/27 06:58:12;;;;;;;11.80;1.92;;;;;;;;;;5059719;28;20048;-67
2023/03/27 07:00:39;;;;;;;13.40;2.05;;;;;;;;;;5062859;28;20086;-67
2023/03/27 07:03:07;;;;;;;14.35;2.35;;;;;;;;;;5036920;28;20053;-67
2023/03/27 07:05:35;;;;;;;7.75;1.65;;;;;;;;;;5062100;28;20036;-67
2023/03/27 07:08:03;;;;;;;6.07;1.25;;;;;;;;;;5062330;28;20044;-68
2023/03/27 07:10:30;;;;;;;11.38;1.77;;;;;;;;;;5035997;28;20036;-68
2023/03/27 07:12:56;;;;;;;13.23;1.70;;;;;;;;;;5056154;28;20401;-67
2023/03/27 07:15:23;;;;;;;8.50;1.60;;;;;;;;;;5060725;28;20033;-67
2023/03/27 07:17:53;;;;;;;9.45;1.17;;;;;;;;;;5057614;28;20056;-67
2023/03/27 07:20:20;;;;;;;7.70;1.58;;;;;;;;;;5059641;28;20100;-67
2023/03/27 07:22:46;;;;;;;7.57;1.27;;;;;;;;;;5058073;28;20498;-70
2023/03/27 07:25:12;;;;;;;8.43;1.27;;;;;;;;;;5044542;28;20384;-67
2023/03/27 07:27:38;;;;;;;8.55;1.60;;;;;;;;;;5058705;28;21321;-67
2023/03/27 07:30:06;;;;;;;11.07;1.60;;;;;;;;;;5055851;28;20486;-70
2023/03/27 07:32:36;;;;;;;9.48;1.00;;;;;;;;;;5055869;28;20045;-67
2023/03/27 07:35:04;;;;;;;7.45;1.52;;;;;;;;;;5061365;28;20066;-64
2023/03/27 07:37:30;;;;;;;10.88;2.33;;;;;;;;;;5056074;28;20138;-65
2023/03/27 07:39:56;;;;;;;9.77;1.70;;;;;;;;;;5058403;28;20048;-66
2023/03/27 07:42:23;;;;;;;10.80;1.45;;;;;;;;;;5058799;28;20078;-66
2023/03/27 07:44:49;;;;;;;10.10;1.63;;;;;;;;;;5057468;28;20079;-65
2023/03/27 07:47:16;;;;;;;8.18;1.13;;;;;;;;;;5042174;28;20048;-65
2023/03/27 07:49:42;;;;;;;10.88;1.85;;;;;;;;;;5060371;28;20193;-65
2023/03/27 07:52:08;;;;;;;7.18;1.42;;;;;;;;;;5042781;28;20037;-65
2023/03/27 07:54:34;;;;;;;13.73;1.73;;;;;;;;;;5062261;28;20052;-66
2023/03/27 07:57:01;;;;;;;11.43;1.90;;;;;;;;;;5058015;28;20499;-66
2023/03/27 07:59:27;;;;;;;14.75;1.90;;;;;;;;;;5055764;28;20450;-66
2023/03/27 08:01:54;;;;;;;14.20;2.03;;;;;;;;;;5055288;28;20043;-66
2023/03/27 08:04:21;;;;;;;14.73;2.00;;;;;;;;;;5059340;28;20491;-66
2023/03/27 08:06:47;;;;;;;10.43;2.03;;;;;;;;;;5037348;28;20488;-67
2023/03/27 08:09:13;;;;;;;3.88;1.38;;;;;;;;;;5058726;28;20403;-72
2023/03/27 08:11:40;;;;;;;8.90;1.40;;;;;;;;;;5040460;28;20169;-66
2023/03/27 08:14:08;;;;;;;4.20;1.20;;;;;;;;;;5056928;28;20055;-65
2023/03/27 08:16:35;;;;;;;6.68;0.95;;;;;;;;;;5040496;28;20113;-66
2023/03/27 08:19:03;;;;;;;2.92;0.70;;;;;;;;;;5058724;28;20059;-65
2023/03/27 08:21:32;;;;;;;3.58;0.63;;;;;;;;;;5056567;28;20048;-65
2023/03/27 08:23:59;;;;;;;4.38;0.80;;;;;;;;;;5061665;28;20059;-65
2023/03/27 08:26:26;;;;;;;2.60;0.70;;;;;;;;;;5058862;28;20123;-64
2023/03/27 08:28:53;;;;;;;3.33;1.00;;;;;;;;;;5062049;28;20070;-65
2023/03/27 08:31:19;;;;;;;3.10;0.63;;;;;;;;;;5040256;28;20075;-65
2023/03/27 08:33:46;;;;;;;5.63;1.00;;;;;;;;;;5055377;28;20044;-65
2023/03/27 08:36:13;;;;;;;4.68;0.95;;;;;;;;;;5054967;28;20056;-65
2023/03/27 08:38:40;;;;;;;8.38;1.52;;;;;;;;;;5037366;28;20080;-65
2023/03/27 08:41:08;;;;;;;7.30;1.10;;;;;;;;;;5057905;28;20044;-65
2023/03/27 08:43:37;;;;;;;8.40;1.70;;;;;;;;;;5056105;28;20064;-65
2023/03/27 08:46:19;;;;;;;5.78;1.20;;;;;;;;;;5053921;28;20814;-65
2023/03/27 08:48:47;;;;;;;8.50;1.65;;;;;;;;;;5062694;28;20036;-65
2023/03/27 08:51:17;;;;;;;9.27;1.65;;;;;;;;;;5056845;28;20447;-71
2023/03/27 08:53:47;;;;;;;10.07;1.80;;;;;;;;;;5035269;28;20049;-65
2023/03/27 08:56:14;;;;;;;9.55;1.60;;;;;;;;;;5058985;28;20063;-78
2023/03/27 08:58:41;;;;;;;10.07;1.52;;;;;;;;;;5038773;28;20054;-69
2023/03/27 09:01:10;;;;;;;6.95;1.55;;;;;;;;;;5059697;28;20460;-65
2023/03/27 09:03:51;;;;;;;11.73;1.27;;;;;;;;;;5059299;28;20076;-65
2023/03/27 09:06:17;;;;;;;9.50;1.65;;;;;;;;;;5058667;28;20047;-65
2023/03/27 09:08:55;;;;;;;9.50;1.48;;;;;;;;;;5053407;28;20040;-65
2023/03/27 09:11:34;;;;;;;6.10;0.95;;;;;;;;;;5058102;28;20033;-65
2023/03/27 09:14:04;;;;;;;11.77;1.48;;;;;;;;;;5058400;28;20144;-65
2023/03/27 09:16:33;;;;;;;11.13;2.35;;;;;;;;;;5061964;28;20080;-65
2023/03/27 09:19:00;;;;;;;9.85;1.65;;;;;;;;;;5064506;28;20476;-65
2023/03/27 09:21:34;;;;;;;10.65;1.55;;;;;;;;;;5064399;28;20512;-65
2023/03/27 09:24:03;;;;;;;8.60;1.20;;;;;;;;;;5057999;28;20049;-65
2023/03/27 09:26:34;;;;;;;13.50;2.15;;;;;;;;;;5067749;28;20096;-65
2023/03/27 09:29:14;;;;;;;11.43;1.58;;;;;;;;;;5067964;28;20040;-65
2023/03/27 09:31:45;;;;;;;7.28;1.67;;;;;;;;;;5051604;28;20090;-66
2023/03/27 09:34:13;;;;;;;6.85;1.17;;;;;;;;;;5048518;28;20060;-65
2023/03/27 09:36:40;;;;;;;9.05;1.63;;;;;;;;;;5062317;28;20055;-64
2023/03/27 09:39:08;;;;;;;11.02;1.60;;;;;;;;;;5065646;28;20045;-65
2023/03/27 09:41:38;;;;;;;8.20;1.35;;;;;;;;;;5043473;28;20040;-64
2023/03/27 09:44:09;;;;;;;7.47;1.20;;;;;;;;;;5066101;28;20123;-65
2023/03/27 09:46:37;;;;;;;11.43;1.73;;;;;;;;;;5067472;28;20064;-65
2023/03/27 09:49:11;;;;;;;6.95;1.33;;;;;;;;;;5067834;28;20033;-65
2023/03/27 09:51:37;;;;;;;;;;;;;;;;;;5042729;28;20086;-65
2023/03/27 09:54:03;;;;;;;14.52;1.83;;;;;;;;;;5049601;28;19924;-65
2023/03/27 09:56:30;;;;;;;8.70;1.60;;;;;;;;;;5043058;28;20468;-65
2023/03/27 09:58:57;;;;;;;11.07;1.73;;;;;;;;;;5045766;28;20071;-65
2023/03/27 10:01:28;;;;;;;12.57;1.85;;;;;;;;;;5060323;28;20040;-65
2023/03/27 10:03:56;;;;;;;8.52;1.40;;;;;;;;;;5057128;28;20584;-65
2023/03/27 10:06:26;;;;;;;12.48;1.58;;;;;;;;;;5058733;28;20513;-64
2023/03/27 10:08:54;;;;;;;9.40;1.27;;;;;;;;;;5057557;28;20383;-65
2023/03/27 10:11:23;;;;;;;16.20;2.47;;;;;;;;;;5043388;28;20399;-65
2023/03/27 10:13:50;;;;;;;8.90;1.10;;;;;;;;;;5060361;28;20048;-65
2023/03/27 10:16:18;;;;;;;8.05;1.25;;;;;;;;;;5036998;28;20066;-64
2023/03/27 10:18:46;;;;;;;7.22;1.45;;;;;;;;;;5043395;28;20049;-66
2023/03/27 10:21:16;;;;;;;9.82;1.33;;;;;;;;;;5062452;28;20040;-65
2023/03/27 10:23:44;;;;;;;6.75;1.20;;;;;;;;;;5042410;28;20075;-64
2023/03/27 10:26:12;;;;;;;12.52;2.00;;;;;;;;;;5065113;28;20434;-65
2023/03/27 10:28:43;;;;;;;6.95;0.93;;;;;;;;;;5045231;28;20061;-65
2023/03/27 10:31:25;;;;;;;5.97;0.90;;;;;;;;;;5067378;28;20127;-65
2023/03/27 10:33:52;;;;;;;5.80;1.05;;;;;;;;;;5066220;28;20047;-65
2023/03/27 10:36:20;;;;;;;9.65;1.25;;;;;;;;;;5048337;28;20419;-67
2023/03/27 10:38:51;;;;;;;6.18;1.40;;;;;;;;;;5042217;28;20087;-66
2023/03/27 10:41:19;;;;;;;4.70;0.85;;;;;;;;;;5027472;28;20076;-67
2023/03/27 10:43:46;;;;;;;10.10;1.25;;;;;;;;;;5064340;28;20040;-67
2023/03/27 10:46:18;;;;;;;5.22;1.10;;;;;;;;;;5067946;28;20041;-67
2023/03/27 10:48:57;;;;;;;5.35;0.90;;;;;;;;;;5067783;28;20040;-67
2023/03/27 10:51:25;;;;;;;7.63;1.35;;;;;;;;;;5065137;28;20048;-67
2023/03/27 10:53:55;;;;;;;9.88;1.52;;;;;;;;;;5066788;28;20087;-67
2023/03/27 10:56:26;;;;;;;10.35;1.23;;;;;;;;;;5057682;28;20044;-67
2023/03/27 10:58:57;;;;;;;12.00;1.33;;;;;;;;;;5060540;28;20124;-67
2023/03/27 11:01:27;;;;;;;5.80;1.20;;;;;;;;;;5061417;28;20498;-70
2023/03/27 11:04:02;;;;;;;10.50;2.10;;;;;;;;;;5052600;28;20083;-67
2023/03/27 11:06:33;;;;;;;9.23;1.58;;;;;;;;;;5054728;28;20055;-67
2023/03/27 11:09:04;;;;;;;9.15;1.65;;;;;;;;;;5056007;28;20051;-68
2023/03/27 11:11:30;;;;;;;6.60;1.23;;;;;;;;;;5054486;28;20557;-68
2023/03/27 11:14:01;;;;;;;12.88;1.77;;;;;;;;;;5042992;28;20468;-67
2023/03/27 11:16:31;;;;;;;12.25;2.38;;;;;;;;;;5042053;28;20085;-68
2023/03/27 11:19:03;;;;;;;13.98;1.73;;;;;;;;;;5041954;28;20071;-67
2023/03/27 11:21:38;;;;;;;13.48;1.73;;;;;;;;;;5044426;28;20029;-68
2023/03/27 11:24:08;;;;;;;8.43;2.15;;;;;;;;;;5036522;28;20057;-68
2023/03/27 11:26:38;;;;;;;8.90;1.83;;;;;;;;;;5038667;28;20049;-67
2023/03/27 11:29:09;;;;;;;8.63;1.38;;;;;;;;;;5040631;28;20052;-68
2023/03/27 11:31:38;;;;;;;7.75;1.50;;;;;;;;;;5041184;28;20049;-68
2023/03/27 11:34:10;;;;;;;7.88;1.52;;;;;;;;;;5042960;28;20056;-67
2023/03/27 11:36:38;;;;;;;7.68;1.45;;;;;;;;;;5041232;28;20045;-69
2023/03/27 11:39:10;;;;;;;8.82;1.98;;;;;;;;;;5026944;28;20094;-68
2023/03/27 11:41:37;;;;;;;9.13;1.92;;;;;;;;;;5037783;28;20045;-67
2023/03/27 11:44:03;;;;;;;6.78;1.27;;;;;;;;;;5049512;28;20084;-67
2023/03/27 11:46:35;;;;;;;5.78;1.70;;;;;;;;;;5046869;28;20474;-67
2023/03/27 11:49:01;;;;;;;8.55;1.48;;;;;;;;;;5035562;28;20083;-69
2023/03/27 11:51:31;;;;;;;7.03;1.60;;;;;;;;;;5046796;28;20091;-67
2023/03/27 11:54:02;;;;;;;7.50;1.75;;;;;;;;;;5032904;28;20083;-68
2023/03/27 11:56:28;;;;;;;7.30;1.33;;;;;;;;;;5036907;28;20435;-68
2023/03/27 11:59:03;;;;;;;9.98;1.92;;;;;;;;;;5039696;28;20116;-68
2023/03/27 12:01:29;;;;;;;9.25;2.25;;;;;;;;;;5038937;28;20140;-68
2023/03/27 12:03:57;;;;;;;8.50;1.92;;;;;;;;;;5041424;28;20075;-68
2023/03/27 12:06:33;;;;;;;8.45;1.90;;;;;;;;;;5044519;28;20448;-67
2023/03/27 12:09:05;;;;;;;8.38;1.55;;;;;;;;;;5038627;28;20408;-68
2023/03/27 12:11:33;;;;;;;9.68;1.48;;;;;;;;;;5042105;28;20439;-67
2023/03/27 12:14:05;;;;;;;11.40;1.58;;;;;;;;;;5035251;28;20069;-68
2023/03/27 12:16:31;;;;;;;8.60;1.77;;;;;;;;;;5039603;28;20052;-69
2023/03/27 12:19:01;;;;;;;7.65;2.00;;;;;;;;;;5039774;28;20057;-67
2023/03/27 12:21:28;;;;;;;9.95;2.08;;;;;;;;;;5056991;28;20037;-68
2023/03/27 12:24:04;;;;;;;9.55;2.05;;;;;;;;;;5041498;28;20227;-66
2023/03/27 12:26:39;;;;;;;8.95;1.42;;;;;;;;;;5058692;28;20123;-66
2023/03/27 12:29:05;;;;;;;14.65;2.03;;;;;;;;;;5044022;28;20110;-67
2023/03/27 12:31:41;;;;;;;8.63;1.77;;;;;;;;;;5053788;28;20114;-67
2023/03/27 12:34:13;;;;;;;15.10;2.47;;;;;;;;;;5042900;28;20057;-68
2023/03/27 12:36:43;;;;;;;13.52;1.95;;;;;;;;;;5065795;28;20053;-68
2023/03/27 12:39:21;;;;;;;14.50;3.20;;;;;;;;;;5070780;28;20048;-68
2023/03/27 12:41:48;;;;;;;12.00;1.83;;;;;;;;;;5042850;28;20112;-68
2023/03/27 12:44:16;;;;;;;11.55;1.90;;;;;;;;;;5049602;28;20102;-67
2023/03/27 12:46:42;;;;;;;16.98;2.53;;;;;;;;;;5050441;28;20043;-68
2023/03/27 12:49:11;;;;;;;16.42;2.38;;;;;;;;;;5060949;28;20060;-69
2023/03/27 12:51:37;;;;;;;11.63;1.88;;;;;;;;;;5065985;28;20503;-69
2023/03/27 12:54:12;;;;;;;8.27;1.25;;;;;;;;;;5061042;28;20047;-68
2023/03/27 12:56:39;;;;;;;11.70;1.70;;;;;;;;;;5067116;28;20132;-69
2023/03/27 12:59:18;;;;;;;18.85;2.92;;;;;;;;;;5060420;28;20048;-69
2023/03/27 13:01:44;;;;;;;11.77;1.70;;;;;;;;;;5056801;28;20171;-69
2023/03/27 13:04:13;;;;;;;8.85;1.58;;;;;;;;;;5059458;28;20119;-69
2023/03/27 13:06:39;;;;;;;7.38;2.10;;;;;;;;;;5063852;28;20044;-68
2023/03/27 13:09:06;;;;;;;14.73;2.47;;;;;;;;;;5067682;28;20044;-69
2023/03/27 13:11:50;;;;;;;11.52;2.13;;;;;;;;;;5065689;28;20053;-69
2023/03/27 13:14:17;;;;;;;16.95;2.58;;;;;;;;;;5064821;28;20113;-68
2023/03/27 13:16:55;;;;;;;11.55;2.42;;;;;;;;;;5059770;28;20136;-68
2023/03/27 13:19:29;;;;;;;11.35;1.67;;;;;;;;;;5029303;28;20535;-68
2023/03/27 13:21:56;;;;;;;7.35;1.38;;;;;;;;;;5059773;28;20049;-68
2023/03/27 13:24:38;;;;;;;9.40;1.63;;;;;;;;;;5042361;28;20096;-69
2023/03/27 13:27:06;;;;;;;6.07;1.10;;;;;;;;;;5048441;28;20514;-69
2023/03/27 13:29:33;;;;;;;8.20;1.50;;;;;;;;;;5062271;28;20040;-71
2023/03/27 13:32:01;;;;;;;8.95;1.25;;;;;;;;;;5060984;28;20041;-68
2023/03/27 13:34:27;;;;;;;6.93;1.30;;;;;;;;;;5057413;28;20076;-68
2023/03/27 13:36:54;;;;;;;8.43;1.60;;;;;;;;;;5042018;28;20040;-67
2023/03/27 13:39:23;;;;;;;7.88;1.50;;;;;;;;;;5062276;28;20053;-67
2023/03/27 13:42:03;;;;;;;13.20;2.47;;;;;;;;;;5065215;28;20099;-67
2023/03/27 13:44:41;;;;;;;11.05;2.25;;;;;;;;;;5048372;28;20546;-67
2023/03/27 13:47:15;;;;;;;8.82;1.88;;;;;;;;;;5058971;28;20485;-66
2023/03/27 13:49:45;;;;;;;5.78;1.67;;;;;;;;;;5066796;28;20040;-66
2023/03/27 13:52:22;;;;;;;15.20;2.20;;;;;;;;;;5047381;28;20084;-66
2023/03/27 13:54:54;;;;;;;6.63;1.45;;;;;;;;;;5062589;28;20549;-67
2023/03/27 13:57:27;;;;;;;8.90;1.85;;;;;;;;;;5066731;28;20107;-67
2023/03/27 13:59:54;;;;;;;7.28;1.40;;;;;;;;;;5062826;28;20118;-67
2023/03/27 14:02:28;;;;;;;12.43;1.90;;;;;;;;;;5062197;28;20094;-67
2023/03/27 14:05:00;;;;;;;12.45;2.13;;;;;;;;;;5027029;28;20210;-67
2023/03/27 14:07:47;;;;;;;8.85;1.60;;;;;;;;;;5041600;28;20056;-67
2023/03/27 14:10:14;;;;;;;10.15;1.40;;;;;;;;;;5043206;28;20044;-66
2023/03/27 14:12:47;;;;;;;8.90;1.60;;;;;;;;;;5062241;28;20085;-65
2023/03/27 14:15:24;;;;;;;8.68;1.35;;;;;;;;;;5054235;28;20049;-65
2023/03/27 14:17:57;;;;;;;5.28;1.42;;;;;;;;;;5043075;28;20113;-65
2023/03/27 14:20:24;;;;;;;6.82;1.60;;;;;;;;;;5042797;28;20049;-66
2023/03/27 14:22:55;;;;;;;8.43;1.63;;;;;;;;;;5064085;28;20054;-65
2023/03/27 14:25:23;;;;;;;9.35;1.77;;;;;;;;;;5040807;28;20052;-65
2023/03/27 14:27:52;;;;;;;9.85;1.48;;;;;;;;;;5062912;28;20572;-65
2023/03/27 14:30:21;;;;;;;9.05;1.50;;;;;;;;;;5039717;28;20138;-64
2023/03/27 14:32:48;;;;;;;9.68;1.73;;;;;;;;;;5059255;28;20087;-65
2023/03/27 14:35:23;;;;;;;9.35;1.70;;;;;;;;;;5058848;28;20033;-65
2023/03/27 14:37:54;;;;;;;9.15;1.60;;;;;;;;;;5056826;28;20132;-65
2023/03/27 14:40:22;;;;;;;9.63;1.90;;;;;;;;;;5059718;28;20056;-65
2023/03/27 14:42:50;;;;;;;6.28;1.20;;;;;;;;;;5060983;28;20170;-64
2023/03/27 14:45:19;;;;;;;6.80;1.10;;;;;;;;;;5044008;28;20044;-65